Time,TemperatureF,DewpointF,PressureIn,WindDirection,WindDirectionDegrees,WindSpeedMPH,WindSpeedGustMPH,Humidity,HourlyPrecipIn,Conditions,Clouds,dailyrainin,SoftwareType,DateUTC
2013-08-03 00:03:00,61.3,40.9,29.80,West,271,0.0,8.0,47,0.00,,,0.00,Wunderground v.1.15,2013-08-03 04:03:00,
2013-08-03 00:08:00,60.8,44.0,29.81,West,273,0.0,8.0,54,0.00,,,0.00,Wunderground v.1.15,2013-08-03 04:08:00,
2013-08-03 00:18:00,61.2,34.0,29.81,West,273,0.0,8.0,36,0.00,,,0.00,Wunderground v.1.15,2013-08-03 04:18:00,
2013-08-03 00:23:00,61.3,31.9,29.81,West,273,0.0,8.0,33,0.00,,,0.00,Wunderground v.1.15,2013-08-03 04:23:00,
2013-08-03 00:33:00,61.0,33.8,29.81,West,273,0.0,8.0,36,0.00,,,0.00,Wunderground v.1.15,2013-08-03 04:33:00,
2013-08-03 00:38:00,61.0,31.7,29.81,West,273,0.0,8.0,33,0.00,,,0.00,Wunderground v.1.15,2013-08-03 04:38:00,
2013-08-03 00:43:00,60.9,32.3,29.81,West,273,0.0,8.0,34,0.00,,,0.00,Wunderground v.1.15,2013-08-03 04:43:00,
2013-08-03 00:48:00,60.7,32.1,29.81,West,273,0.0,8.0,34,0.00,,,0.00,Wunderground v.1.15,2013-08-03 04:48:00,
2013-08-03 00:53:00,60.8,29.9,29.81,West,273,0.0,8.0,31,0.00,,,0.00,Wunderground v.1.15,2013-08-03 04:53:00,
2013-08-03 00:58:00,60.7,31.4,29.81,West,273,0.0,0.0,33,0.00,,,0.00,Wunderground v.1.15,2013-08-03 04:58:00,
2013-08-03 01:08:00,60.3,33.2,29.81,West,273,0.0,0.0,36,0.00,,,0.00,Wunderground v.1.15,2013-08-03 05:08:00,
2013-08-03 01:13:00,60.4,30.4,29.80,West,273,0.0,0.0,32,0.00,,,0.00,Wunderground v.1.15,2013-08-03 05:13:00,
2013-08-03 01:18:00,60.6,29.0,29.80,West,273,0.0,0.0,30,0.00,,,0.00,Wunderground v.1.15,2013-08-03 05:18:00,
2013-08-03 01:28:00,59.3,35.0,29.80,WNW,286,0.0,0.0,40,0.00,,,0.00,Wunderground v.1.15,2013-08-03 05:28:00,
2013-08-03 01:33:00,59.3,35.6,29.80,West,275,0.0,0.0,41,0.00,,,0.00,Wunderground v.1.15,2013-08-03 05:33:00,
2013-08-03 01:38:00,59.7,29.8,29.79,West,275,0.0,0.0,32,0.00,,,0.00,Wunderground v.1.15,2013-08-03 05:38:00,
2013-08-03 01:48:00,59.6,30.4,29.79,West,276,0.0,0.0,33,0.00,,,0.00,Wunderground v.1.15,2013-08-03 05:48:00,
2013-08-03 01:58:00,59.3,30.2,29.80,West,276,0.0,0.0,33,0.00,,,0.00,Wunderground v.1.15,2013-08-03 05:58:00,
2013-08-03 02:08:00,58.8,34.5,29.79,West,276,0.0,0.0,40,0.00,,,0.00,Wunderground v.1.15,2013-08-03 06:08:00,
2013-08-03 02:13:00,58.9,30.6,29.79,West,276,0.0,0.0,34,0.00,,,0.00,Wunderground v.1.15,2013-08-03 06:13:00,
2013-08-03 02:23:00,58.4,35.4,29.79,WNW,287,0.0,0.0,42,0.00,,,0.00,Wunderground v.1.15,2013-08-03 06:23:00,
2013-08-03 02:33:00,58.1,33.9,29.78,WNW,286,0.0,0.0,40,0.00,,,0.00,Wunderground v.1.15,2013-08-03 06:33:00,
2013-08-03 02:38:00,58.4,29.4,29.78,WNW,286,0.0,0.0,33,0.00,,,0.00,Wunderground v.1.15,2013-08-03 06:38:00,
2013-08-03 02:43:00,58.5,27.9,29.78,WNW,286,0.0,0.0,31,0.00,,,0.00,Wunderground v.1.15,2013-08-03 06:43:00,
2013-08-03 02:53:00,58.8,26.6,29.78,WNW,285,0.0,0.0,29,0.00,,,0.00,Wunderground v.1.15,2013-08-03 06:53:00,
2013-08-03 02:58:00,58.6,28.0,29.78,WNW,286,0.0,0.0,31,0.00,,,0.00,Wunderground v.1.15,2013-08-03 06:58:00,
2013-08-03 03:03:00,58.4,27.9,29.78,WNW,286,0.0,0.0,31,0.00,,,0.00,Wunderground v.1.15,2013-08-03 07:03:00,
2013-08-03 03:13:00,58.6,27.2,29.78,SSW,192,0.0,0.0,30,0.00,,,0.00,Wunderground v.1.15,2013-08-03 07:13:00,
2013-08-03 03:18:00,59.0,26.8,29.79,SSE,166,1.0,6.0,29,0.00,,,0.00,Wunderground v.1.15,2013-08-03 07:18:00,
2013-08-03 03:28:00,60.2,30.2,29.77,SE,145,2.0,2.0,32,0.00,,,0.00,Wunderground v.1.15,2013-08-03 07:28:00,
2013-08-03 03:38:00,60.7,31.4,29.77,SSE,164,1.0,1.0,33,0.00,,,0.00,Wunderground v.1.15,2013-08-03 07:38:00,
2013-08-03 03:48:00,60.6,31.3,29.77,West,277,0.0,0.0,33,0.00,,,0.00,Wunderground v.1.15,2013-08-03 07:48:00,
2013-08-03 03:58:00,60.4,30.4,29.76,West,277,0.0,0.0,32,0.00,,,0.00,Wunderground v.1.15,2013-08-03 07:58:00,
2013-08-03 04:08:00,60.1,29.3,29.76,West,277,0.0,0.0,31,0.00,,,0.00,Wunderground v.1.15,2013-08-03 08:08:00,
2013-08-03 04:13:00,60.1,28.5,29.76,West,277,0.0,0.0,30,0.00,,,0.00,Wunderground v.1.15,2013-08-03 08:13:00,
2013-08-03 04:18:00,59.7,29.0,29.76,West,277,0.0,0.0,31,0.00,,,0.00,Wunderground v.1.15,2013-08-03 08:18:00,
2013-08-03 04:28:00,59.2,29.3,29.75,West,277,0.0,0.0,32,0.00,,,0.00,Wunderground v.1.15,2013-08-03 08:28:00,
2013-08-03 04:38:00,58.8,29.7,29.75,West,277,0.0,0.0,33,0.00,,,0.00,Wunderground v.1.15,2013-08-03 08:38:00,
2013-08-03 04:48:00,58.6,28.8,29.75,West,277,0.0,0.0,32,0.00,,,0.00,Wunderground v.1.15,2013-08-03 08:48:00,
2013-08-03 04:53:00,58.7,28.1,29.75,West,273,0.0,0.0,31,0.00,,,0.00,Wunderground v.1.15,2013-08-03 08:53:00,
2013-08-03 04:58:00,58.7,27.3,29.75,West,276,0.0,0.0,30,0.00,,,0.00,Wunderground v.1.15,2013-08-03 08:58:00,
2013-08-03 05:08:00,58.6,28.0,29.75,West,261,0.0,0.0,31,0.00,,,0.00,Wunderground v.1.15,2013-08-03 09:08:00,
2013-08-03 05:18:00,58.6,27.2,29.75,West,261,0.0,0.0,30,0.00,,,0.00,Wunderground v.1.15,2013-08-03 09:18:00,
2013-08-03 05:28:00,58.5,27.9,29.76,West,261,0.0,0.0,31,0.00,,,0.00,Wunderground v.1.15,2013-08-03 09:28:00,
2013-08-03 05:33:00,58.5,27.9,29.75,West,261,0.0,0.0,31,0.00,,,0.00,Wunderground v.1.15,2013-08-03 09:33:00,
2013-08-03 05:38:00,58.4,27.9,29.75,West,267,0.0,0.0,31,0.00,,,0.00,Wunderground v.1.15,2013-08-03 09:38:00,
2013-08-03 05:48:00,58.2,27.7,29.76,West,267,0.0,0.0,31,0.00,,,0.00,Wunderground v.1.15,2013-08-03 09:48:00,
2013-08-03 05:58:00,58.3,27.8,29.76,West,267,0.0,0.0,31,0.00,,,0.00,Wunderground v.1.15,2013-08-03 09:58:00,
2013-08-03 06:08:00,58.4,27.9,29.76,WSW,240,0.0,0.0,31,0.00,,,0.00,Wunderground v.1.15,2013-08-03 10:08:00,
2013-08-03 06:13:00,58.7,28.1,29.76,WSW,240,0.0,0.0,31,0.00,,,0.00,Wunderground v.1.15,2013-08-03 10:13:00,
2013-08-03 06:18:00,58.7,28.9,29.76,WSW,240,0.0,0.0,32,0.00,,,0.00,Wunderground v.1.15,2013-08-03 10:18:00,
2013-08-03 06:28:00,58.4,27.9,29.76,WSW,240,0.0,0.0,31,0.00,,,0.01,Wunderground v.1.15,2013-08-03 10:28:00,
2013-08-03 06:33:00,58.6,28.0,29.76,WSW,240,0.0,0.0,31,0.00,,,0.01,Wunderground v.1.15,2013-08-03 10:33:00,
2013-08-03 06:43:00,59.1,28.5,29.77,WSW,240,0.0,0.0,31,0.00,,,0.01,Wunderground v.1.15,2013-08-03 10:43:00,
2013-08-03 06:53:00,59.7,29.8,29.77,SE,137,0.0,0.0,32,0.00,,,0.01,Wunderground v.1.15,2013-08-03 10:53:00,
2013-08-03 07:03:00,60.4,31.1,29.77,SE,137,0.0,0.0,33,0.00,,,0.01,Wunderground v.1.15,2013-08-03 11:03:00,
2013-08-03 07:08:00,60.7,30.6,29.77,SE,137,0.0,0.0,32,0.00,,,0.01,Wunderground v.1.15,2013-08-03 11:08:00,
2013-08-03 07:13:00,61.0,30.1,29.77,West,277,0.0,0.0,31,0.00,,,0.01,Wunderground v.1.15,2013-08-03 11:13:00,
2013-08-03 07:18:00,61.9,30.1,29.77,West,277,0.0,0.0,30,0.00,,,0.01,Wunderground v.1.15,2013-08-03 11:18:00,
2013-08-03 07:28:00,63.5,29.8,29.77,SSW,192,1.0,1.0,28,0.00,,,0.01,Wunderground v.1.15,2013-08-03 11:28:00,
2013-08-03 07:38:00,64.1,32.0,29.77,SSW,209,1.0,1.0,30,0.00,,,0.01,Wunderground v.1.15,2013-08-03 11:38:00,
2013-08-03 07:43:00,64.1,38.0,29.78,SSW,200,1.0,2.0,38,0.00,,,0.01,Wunderground v.1.15,2013-08-03 11:43:00,
2013-08-03 07:53:00,64.7,46.1,29.78,SSW,196,4.0,4.0,51,0.00,,,0.01,Wunderground v.1.15,2013-08-03 11:53:00,
2013-08-03 08:03:00,65.3,54.5,29.78,South,184,4.0,4.0,68,0.00,,,0.01,Wunderground v.1.15,2013-08-03 12:03:00,
2013-08-03 08:08:00,65.9,59.6,29.78,South,191,4.0,4.0,80,0.00,,,0.01,Wunderground v.1.15,2013-08-03 12:08:00,
2013-08-03 08:18:00,66.0,62.0,29.77,SSW,199,4.0,4.0,87,0.00,,,0.01,Wunderground v.1.15,2013-08-03 12:18:00,
2013-08-03 08:23:00,65.9,62.6,29.76,SSW,198,3.0,4.0,89,0.00,,,0.01,Wunderground v.1.15,2013-08-03 12:23:00,
2013-08-03 08:28:00,65.9,62.2,29.76,SSW,194,3.0,3.0,88,0.00,,,0.01,Wunderground v.1.15,2013-08-03 12:28:00,
2013-08-03 08:33:00,65.9,62.2,29.77,SSE,162,4.0,6.0,88,0.00,,,0.01,Wunderground v.1.15,2013-08-03 12:33:00,
2013-08-03 08:43:00,66.1,62.4,29.76,South,180,4.0,7.0,88,0.00,,,0.01,Wunderground v.1.15,2013-08-03 12:43:00,
2013-08-03 08:53:00,66.2,62.9,29.76,SSW,199,3.0,4.0,89,0.00,,,0.01,Wunderground v.1.15,2013-08-03 12:53:00,
2013-08-03 09:03:00,66.3,63.0,29.76,SSW,196,2.0,2.0,89,0.00,,,0.01,Wunderground v.1.15,2013-08-03 13:03:00,
2013-08-03 09:13:00,66.1,63.1,29.76,SSE,164,2.0,3.0,90,0.00,,,0.01,Wunderground v.1.15,2013-08-03 13:13:00,
2013-08-03 09:23:00,65.8,62.5,29.76,SSW,205,2.0,2.0,89,0.00,,,0.01,Wunderground v.1.15,2013-08-03 13:23:00,
2013-08-03 09:28:00,65.8,62.5,29.76,SSW,210,2.0,2.0,89,0.00,,,0.01,Wunderground v.1.15,2013-08-03 13:28:00,
2013-08-03 09:38:00,65.8,61.8,29.77,SW,223,1.0,1.0,87,0.00,,,0.01,Wunderground v.1.15,2013-08-03 13:38:00,
2013-08-03 09:48:00,66.0,62.3,29.77,SSW,209,1.0,2.0,88,0.00,,,0.01,Wunderground v.1.15,2013-08-03 13:48:00,
2013-08-03 09:53:00,66.1,62.8,29.77,SW,215,2.0,2.0,89,0.00,,,0.01,Wunderground v.1.15,2013-08-03 13:53:00,
2013-08-03 09:58:00,66.1,62.8,29.77,SW,227,2.0,3.0,89,0.00,,,0.01,Wunderground v.1.15,2013-08-03 13:58:00,
2013-08-03 10:03:00,66.2,63.2,29.77,WSW,239,3.0,3.0,90,0.00,,,0.01,Wunderground v.1.15,2013-08-03 14:03:00,
2013-08-03 10:13:00,66.2,63.2,29.77,West,268,4.0,4.0,90,0.00,,,0.01,Wunderground v.1.15,2013-08-03 14:13:00,
2013-08-03 10:18:00,66.0,63.0,29.76,WSW,250,5.0,11.0,90,0.00,,,0.01,Wunderground v.1.15,2013-08-03 14:18:00,
2013-08-03 10:28:00,65.2,62.2,29.76,WNW,290,9.0,9.0,90,0.00,,,0.01,Wunderground v.1.15,2013-08-03 14:28:00,
2013-08-03 10:33:00,65.0,62.0,29.76,NW,311,7.0,9.0,90,0.00,,,0.01,Wunderground v.1.15,2013-08-03 14:33:00,
2013-08-03 10:38:00,64.8,61.8,29.75,WNW,291,6.0,6.0,90,0.00,,,0.01,Wunderground v.1.15,2013-08-03 14:38:00,
2013-08-03 10:43:00,64.7,61.7,29.75,WNW,292,5.0,6.0,90,0.00,,,0.01,Wunderground v.1.15,2013-08-03 14:43:00,
2013-08-03 10:53:00,64.6,61.3,29.76,West,279,2.0,4.0,89,0.00,,,0.01,Wunderground v.1.15,2013-08-03 14:53:00,
2013-08-03 11:03:00,64.5,61.2,29.76,West,274,4.0,5.0,89,0.00,,,0.01,Wunderground v.1.15,2013-08-03 15:03:00,
2013-08-03 11:13:00,63.9,60.3,29.75,WNW,291,4.0,6.0,88,0.12,,,0.03,Wunderground v.1.15,2013-08-03 15:13:00,
2013-08-03 11:23:00,64.3,59.7,29.74,ENE,74,2.0,3.0,85,0.04,,,0.03,Wunderground v.1.15,2013-08-03 15:23:00,
2013-08-03 11:28:00,64.5,61.2,29.74,ENE,74,0.0,0.0,89,0.00,,,0.03,Wunderground v.1.15,2013-08-03 15:28:00,
2013-08-03 11:38:00,65.6,62.3,29.73,NNW,342,0.0,1.0,89,0.00,,,0.03,Wunderground v.1.15,2013-08-03 15:38:00,
2013-08-03 11:43:00,66.4,61.8,29.73,SSW,211,0.0,1.0,85,0.00,,,0.03,Wunderground v.1.15,2013-08-03 15:43:00,
2013-08-03 11:48:00,67.5,64.5,29.73,ENE,64,0.0,0.0,90,0.00,,,0.03,Wunderground v.1.15,2013-08-03 15:48:00,
2013-08-03 11:53:00,67.5,64.1,29.73,ENE,64,0.0,1.0,89,0.00,,,0.03,Wunderground v.1.15,2013-08-03 15:53:00,
2013-08-03 11:58:00,67.2,63.8,29.73,ENE,78,1.0,1.0,89,0.00,,,0.03,Wunderground v.1.15,2013-08-03 15:58:00,
2013-08-03 12:08:00,68.7,65.3,29.73,WSW,248,1.0,1.0,89,0.00,,,0.03,Wunderground v.1.15,2013-08-03 16:08:00,
2013-08-03 12:18:00,71.6,65.5,29.73,West,280,1.0,5.0,81,0.00,,,0.03,Wunderground v.1.15,2013-08-03 16:18:00,
2013-08-03 12:28:00,72.0,65.8,29.73,SE,128,3.0,7.0,81,0.00,,,0.03,Wunderground v.1.15,2013-08-03 16:28:00,
2013-08-03 12:33:00,72.6,64.2,29.73,South,185,3.0,7.0,75,0.00,,,0.03,Wunderground v.1.15,2013-08-03 16:33:00,
2013-08-03 12:43:00,72.6,63.8,29.72,South,191,4.0,4.0,74,0.00,,,0.03,Wunderground v.1.15,2013-08-03 16:43:00,
2013-08-03 12:48:00,72.8,63.6,29.72,WSW,245,5.0,5.0,73,0.00,,,0.03,Wunderground v.1.15,2013-08-03 16:48:00,
2013-08-03 12:53:00,73.2,64.4,29.72,SE,125,4.0,7.0,74,0.00,,,0.03,Wunderground v.1.15,2013-08-03 16:53:00,
2013-08-03 12:58:00,73.2,64.4,29.72,SE,138,4.0,9.0,74,0.00,,,0.03,Wunderground v.1.15,2013-08-03 16:58:00,
2013-08-03 13:03:00,73.2,65.9,29.72,SSW,203,7.0,9.0,78,0.00,,,0.03,Wunderground v.1.15,2013-08-03 17:03:00,
2013-08-03 13:13:00,73.1,65.5,29.72,South,169,5.0,8.0,77,0.00,,,0.03,Wunderground v.1.15,2013-08-03 17:13:00,
2013-08-03 13:23:00,72.9,65.3,29.72,South,180,7.0,10.0,77,0.00,,,0.03,Wunderground v.1.15,2013-08-03 17:23:00,
2013-08-03 13:33:00,72.5,65.2,29.72,South,172,9.0,9.0,78,0.00,,,0.03,Wunderground v.1.15,2013-08-03 17:33:00,
2013-08-03 13:38:00,72.6,65.0,29.72,SSW,199,6.0,6.0,77,0.00,,,0.03,Wunderground v.1.15,2013-08-03 17:38:00,
2013-08-03 13:48:00,72.3,65.1,29.73,SSE,164,7.0,7.0,78,0.00,,,0.03,Wunderground v.1.15,2013-08-03 17:48:00,
2013-08-03 13:58:00,72.1,64.9,29.73,SE,125,8.0,11.0,78,0.00,,,0.03,Wunderground v.1.15,2013-08-03 17:58:00,
2013-08-03 14:08:00,71.4,63.8,29.73,SE,145,10.0,10.0,77,0.00,,,0.03,Wunderground v.1.15,2013-08-03 18:08:00,
2013-08-03 14:18:00,71.2,64.0,29.73,SE,134,10.0,10.0,78,0.00,,,0.03,Wunderground v.1.15,2013-08-03 18:18:00,
2013-08-03 14:23:00,71.5,64.3,29.73,SSE,161,9.0,10.0,78,0.00,,,0.03,Wunderground v.1.15,2013-08-03 18:23:00,
2013-08-03 14:33:00,71.7,64.5,29.73,SSW,207,8.0,8.0,78,0.00,,,0.03,Wunderground v.1.15,2013-08-03 18:33:00,
2013-08-03 14:38:00,71.7,64.5,29.73,South,178,7.0,10.0,78,0.00,,,0.03,Wunderground v.1.15,2013-08-03 18:38:00,
2013-08-03 14:43:00,71.6,64.0,29.72,South,183,7.0,10.0,77,0.00,,,0.03,Wunderground v.1.15,2013-08-03 18:43:00,
2013-08-03 14:48:00,71.0,63.4,29.73,SSE,153,9.0,9.0,77,0.00,,,0.03,Wunderground v.1.15,2013-08-03 18:48:00,
2013-08-03 14:58:00,70.2,62.6,29.73,SSW,192,9.0,9.0,77,0.00,,,0.03,Wunderground v.1.15,2013-08-03 18:58:00,
2013-08-03 15:08:00,70.7,63.9,29.72,SSW,207,7.0,7.0,79,0.00,,,0.03,Wunderground v.1.15,2013-08-03 19:08:00,
2013-08-03 15:13:00,70.7,62.8,29.73,South,191,7.0,8.0,76,0.00,,,0.03,Wunderground v.1.15,2013-08-03 19:13:00,
2013-08-03 15:18:00,70.7,62.8,29.73,SSE,168,9.0,13.0,76,0.00,,,0.03,Wunderground v.1.15,2013-08-03 19:18:00,
2013-08-03 15:28:00,70.7,62.8,29.72,SSE,155,11.0,11.0,76,0.00,,,0.03,Wunderground v.1.15,2013-08-03 19:28:00,
2013-08-03 15:38:00,70.6,62.3,29.72,SE,142,11.0,12.0,75,0.00,,,0.03,Wunderground v.1.15,2013-08-03 19:38:00,
2013-08-03 15:48:00,70.5,62.2,29.72,SSE,162,10.0,14.0,75,0.00,,,0.03,Wunderground v.1.15,2013-08-03 19:48:00,
2013-08-03 15:58:00,70.4,62.8,29.73,SSE,154,10.0,10.0,77,0.00,,,0.03,Wunderground v.1.15,2013-08-03 19:58:00,
2013-08-03 16:03:00,70.4,62.8,29.73,South,172,10.0,10.0,77,0.00,,,0.03,Wunderground v.1.15,2013-08-03 20:03:00,
2013-08-03 16:08:00,70.6,63.4,29.73,SSE,156,9.0,12.0,78,0.00,,,0.03,Wunderground v.1.15,2013-08-03 20:08:00,
2013-08-03 16:18:00,70.5,64.0,29.72,SSE,159,10.0,10.0,80,0.00,,,0.03,Wunderground v.1.15,2013-08-03 20:18:00,
2013-08-03 16:28:00,70.7,64.2,29.72,SSE,153,8.0,8.0,80,0.00,,,0.03,Wunderground v.1.15,2013-08-03 20:28:00,
2013-08-03 16:33:00,71.0,64.5,29.72,SSE,161,7.0,11.0,80,0.00,,,0.03,Wunderground v.1.15,2013-08-03 20:33:00,
2013-08-03 16:43:00,70.8,64.3,29.72,SSE,164,9.0,9.0,80,0.00,,,0.03,Wunderground v.1.15,2013-08-03 20:43:00,
2013-08-03 16:53:00,71.3,65.2,29.71,South,172,7.0,9.0,81,0.00,,,0.03,Wunderground v.1.15,2013-08-03 20:53:00,
2013-08-03 16:58:00,71.6,64.4,29.71,South,171,6.0,8.0,78,0.00,,,0.03,Wunderground v.1.15,2013-08-03 20:58:00,
2013-08-03 17:03:00,71.6,64.7,29.71,SE,130,5.0,8.0,79,0.00,,,0.03,Wunderground v.1.15,2013-08-03 21:03:00,
2013-08-03 17:13:00,70.9,64.8,29.71,SE,138,6.0,10.0,81,0.00,,,0.03,Wunderground v.1.15,2013-08-03 21:13:00,
2013-08-03 17:23:00,70.3,64.2,29.72,South,178,6.0,6.0,81,0.00,,,0.03,Wunderground v.1.15,2013-08-03 21:23:00,
2013-08-03 17:33:00,69.8,64.1,29.72,SSE,165,5.0,8.0,82,0.00,,,0.03,Wunderground v.1.15,2013-08-03 21:33:00,
2013-08-03 17:38:00,69.7,64.3,29.71,South,180,4.0,4.0,83,0.00,,,0.03,Wunderground v.1.15,2013-08-03 21:38:00,
2013-08-03 17:48:00,69.7,64.6,29.71,South,179,3.0,3.0,84,0.00,,,0.03,Wunderground v.1.15,2013-08-03 21:48:00,
2013-08-03 17:58:00,69.4,64.7,29.71,SSE,163,4.0,4.0,85,0.00,,,0.03,Wunderground v.1.15,2013-08-03 21:58:00,
2013-08-03 18:08:00,69.0,64.6,29.72,SSW,210,3.0,3.0,86,0.00,,,0.03,Wunderground v.1.15,2013-08-03 22:08:00,
2013-08-03 18:18:00,68.9,64.5,29.72,WNW,296,2.0,4.0,86,0.00,,,0.03,Wunderground v.1.15,2013-08-03 22:18:00,
2013-08-03 18:23:00,69.2,64.5,29.73,WNW,291,4.0,4.0,85,0.00,,,0.03,Wunderground v.1.15,2013-08-03 22:23:00,
2013-08-03 18:33:00,69.6,64.9,29.73,SSW,192,1.0,4.0,85,0.00,,,0.03,Wunderground v.1.15,2013-08-03 22:33:00,
2013-08-03 18:38:00,70.3,65.6,29.73,SSE,165,1.0,1.0,85,0.00,,,0.03,Wunderground v.1.15,2013-08-03 22:38:00,
2013-08-03 18:48:00,72.4,66.2,29.73,South,171,0.0,0.0,81,0.00,,,0.03,Wunderground v.1.15,2013-08-03 22:48:00,
2013-08-03 18:53:00,73.2,65.9,29.73,South,181,0.0,0.0,78,0.00,,,0.03,Wunderground v.1.15,2013-08-03 22:53:00,
2013-08-03 19:03:00,73.1,65.8,29.73,SSW,195,0.0,0.0,78,0.00,,,0.03,Wunderground v.1.15,2013-08-03 23:03:00,
2013-08-03 19:13:00,72.1,65.6,29.73,SW,230,0.0,0.0,80,0.00,,,0.03,Wunderground v.1.15,2013-08-03 23:13:00,
2013-08-03 19:18:00,71.7,65.6,29.73,SW,225,0.0,0.0,81,0.00,,,0.03,Wunderground v.1.15,2013-08-03 23:18:00,
2013-08-03 19:23:00,71.7,65.2,29.73,SSW,213,0.0,0.0,80,0.00,,,0.03,Wunderground v.1.15,2013-08-03 23:23:00,
2013-08-03 19:33:00,71.3,62.6,29.73,WSW,251,2.0,3.0,74,0.00,,,0.03,Wunderground v.1.15,2013-08-03 23:33:00,
2013-08-03 19:38:00,70.8,62.1,29.73,WSW,250,2.0,3.0,74,0.00,,,0.03,Wunderground v.1.15,2013-08-03 23:38:00,
2013-08-03 19:48:00,69.8,61.5,29.73,SW,236,2.0,2.0,75,0.00,,,0.03,Wunderground v.1.15,2013-08-03 23:48:00,
2013-08-03 19:58:00,68.9,61.0,29.74,West,263,1.0,1.0,76,0.00,,,0.03,Wunderground v.1.15,2013-08-03 23:58:00,
2013-08-03 20:08:00,67.9,60.8,29.74,West,259,1.0,1.0,78,0.00,,,0.03,Wunderground v.1.15,2013-08-04 00:08:00,
2013-08-03 20:13:00,67.5,60.8,29.75,WSW,257,1.0,2.0,79,0.00,,,0.03,Wunderground v.1.15,2013-08-04 00:13:00,
2013-08-03 20:23:00,66.8,60.8,29.75,West,261,2.0,2.0,81,0.00,,,0.03,Wunderground v.1.15,2013-08-04 00:23:00,
2013-08-03 20:28:00,66.4,60.7,29.75,West,276,2.0,2.0,82,0.00,,,0.03,Wunderground v.1.15,2013-08-04 00:28:00,
2013-08-03 20:38:00,66.1,60.8,29.76,WNW,289,1.0,2.0,83,0.00,,,0.03,Wunderground v.1.15,2013-08-04 00:38:00,
2013-08-03 20:43:00,66.3,61.0,29.76,WNW,291,1.0,2.0,83,0.00,,,0.03,Wunderground v.1.15,2013-08-04 00:43:00,
2013-08-03 20:48:00,66.3,61.0,29.76,West,266,1.0,1.0,83,0.00,,,0.03,Wunderground v.1.15,2013-08-04 00:48:00,
2013-08-03 20:53:00,66.6,61.3,29.76,West,268,1.0,1.0,83,0.00,,,0.03,Wunderground v.1.15,2013-08-04 00:53:00,
2013-08-03 21:03:00,66.7,61.4,29.76,West,269,0.0,1.0,83,0.00,,,0.03,Wunderground v.1.15,2013-08-04 01:03:00,
2013-08-03 21:08:00,66.5,61.2,29.76,West,269,0.0,0.0,83,0.00,,,0.03,Wunderground v.1.15,2013-08-04 01:08:00,
2013-08-03 21:13:00,66.4,61.1,29.76,West,269,0.0,0.0,83,0.00,,,0.03,Wunderground v.1.15,2013-08-04 01:13:00,
2013-08-03 21:18:00,66.5,61.2,29.76,West,271,0.0,0.0,83,0.00,,,0.03,Wunderground v.1.15,2013-08-04 01:18:00,
2013-08-03 21:28:00,66.7,61.0,29.76,West,269,0.0,0.0,82,0.00,,,0.03,Wunderground v.1.15,2013-08-04 01:28:00,
2013-08-03 21:38:00,66.5,60.1,29.77,WSW,242,0.0,0.0,80,0.00,,,0.03,Wunderground v.1.15,2013-08-04 01:38:00,
2013-08-03 21:43:00,66.6,60.2,29.77,WSW,242,0.0,0.0,80,0.00,,,0.03,Wunderground v.1.15,2013-08-04 01:43:00,
2013-08-03 21:48:00,66.4,60.4,29.77,WSW,242,0.0,0.0,81,0.00,,,0.03,Wunderground v.1.15,2013-08-04 01:48:00,
2013-08-03 21:58:00,65.3,61.0,29.77,WSW,242,0.0,0.0,86,0.00,,,0.03,Wunderground v.1.15,2013-08-04 01:58:00,
2013-08-03 22:03:00,64.6,60.0,29.77,WSW,242,0.0,0.0,85,0.00,,,0.03,Wunderground v.1.15,2013-08-04 02:03:00,
2013-08-03 22:13:00,64.3,59.0,29.76,South,190,0.0,0.0,83,0.00,,,0.03,Wunderground v.1.15,2013-08-04 02:13:00,
2013-08-03 22:18:00,64.5,59.2,29.76,SSW,195,0.0,1.0,83,0.00,,,0.03,Wunderground v.1.15,2013-08-04 02:18:00,
2013-08-03 22:28:00,64.5,59.2,29.76,West,280,1.0,1.0,83,0.00,,,0.03,Wunderground v.1.15,2013-08-04 02:28:00,
2013-08-03 22:33:00,64.0,59.1,29.76,West,277,1.0,1.0,84,0.00,,,0.03,Wunderground v.1.15,2013-08-04 02:33:00,
2013-08-03 22:43:00,63.9,59.0,29.76,West,271,0.0,1.0,84,0.00,,,0.03,Wunderground v.1.15,2013-08-04 02:43:00,
2013-08-03 22:53:00,63.8,58.9,29.76,WSW,240,0.0,2.0,84,0.00,,,0.03,Wunderground v.1.15,2013-08-04 02:53:00,
2013-08-03 22:58:00,63.9,58.6,29.77,SW,221,0.0,0.0,83,0.00,,,0.03,Wunderground v.1.15,2013-08-04 02:58:00,
2013-08-03 23:08:00,63.8,58.9,29.77,West,271,0.0,0.0,84,0.00,,,0.03,Wunderground v.1.15,2013-08-04 03:08:00,
2013-08-03 23:13:00,63.9,58.6,29.77,WSW,251,0.0,0.0,83,0.00,,,0.03,Wunderground v.1.15,2013-08-04 03:13:00,
2013-08-03 23:23:00,63.2,58.6,29.76,WSW,250,0.0,0.0,85,0.00,,,0.03,Wunderground v.1.15,2013-08-04 03:23:00,
2013-08-03 23:33:00,62.5,58.3,29.77,WSW,250,0.0,0.0,86,0.00,,,0.03,Wunderground v.1.15,2013-08-04 03:33:00,
2013-08-03 23:43:00,62.2,58.9,29.77,North,355,0.0,0.0,89,0.00,,,0.03,Wunderground v.1.15,2013-08-04 03:43:00,
2013-08-03 23:53:00,61.6,58.3,29.76,WNW,283,0.0,0.0,89,0.00,,,0.00,Wunderground v.1.15,2013-08-04 03:53:00,
2013-08-03 23:58:00,61.1,57.8,29.76,West,281,0.0,0.0,89,0.00,,,0.00,Wunderground v.1.15,2013-08-04 03:58:00,